Time;durP1;ratioP1;P1;durP2;ratioP2;P2;SDS_P1;SDS_P2;PMS_P1;PMS_P2;Temp;Humidity;BMP_temperature;BMP_pressure;BME280_temperature;BME280_humidity;BME280_pressure;Samples;Min_cycle;Max_cycle;Signal;HPM_P1;HPM_P2
2023/11/24 00:01:43;;;;;;;;;10.00;8.00;;;;;16.84;73.98;101453.38;6267735;22;44943;-84
2023/11/24 00:04:08;;;;;;;;;6.67;5.00;;;;;16.76;74.37;101453.31;6270100;22;45192;-84
2023/11/24 00:06:34;;;;;;;;;5.00;5.00;;;;;16.76;74.72;101440.81;6242548;22;44937;-84
2023/11/24 00:09:00;;;;;;;;;3.00;3.00;;;;;16.82;74.80;101442.63;6243265;22;44963;-83
2023/11/24 00:11:26;;;;;;;;;3.33;3.33;;;;;16.89;74.65;101440.84;6270223;22;45118;-83
2023/11/24 00:13:52;;;;;;;;;7.33;6.67;;;;;16.84;74.61;101448.88;6270182;22;45393;-84
2023/11/24 00:16:18;;;;;;;;;7.33;6.00;;;;;16.84;74.70;101448.00;6270316;22;44724;-84
2023/11/24 00:18:44;;;;;;;;;4.00;4.00;;;;;16.90;74.39;101440.81;6268044;22;44847;-84
2023/11/24 00:21:09;;;;;;;;;4.33;4.33;;;;;16.96;74.27;101443.50;6266843;22;45299;-84
2023/11/24 00:23:36;;;;;;;;;5.67;4.00;;;;;17.08;74.40;101425.56;6242988;22;44835;-84
2023/11/24 00:26:05;;;;;;;;;8.33;8.00;;;;;17.09;74.51;101422.91;6269763;22;44726;-84
2023/11/24 00:28:32;;;;;;;;;5.00;4.67;;;;;16.93;74.20;101416.66;6268923;22;45018;-83
2023/11/24 00:30:57;;;;;;;;;4.67;3.67;;;;;16.96;74.59;101403.19;6268315;22;47366;-84
2023/11/24 00:33:23;;;;;;;;;4.00;3.67;;;;;17.13;74.43;101411.25;6268167;22;45107;-84
2023/11/24 00:35:49;;;;;;;;;5.33;5.00;;;;;17.13;74.40;101386.16;6242621;22;44841;-82
2023/11/24 00:38:15;;;;;;;;;9.00;3.67;;;;;17.12;74.80;101400.47;6242197;22;44912;-83
2023/11/24 00:40:41;;;;;;;;;5.33;4.67;;;;;17.16;74.20;101408.53;6268786;22;46803;-84
2023/11/24 00:43:08;;;;;;;;;5.33;5.00;;;;;17.33;74.33;101395.06;6243298;22;44802;-84
2023/11/24 00:45:35;;;;;;;;;6.00;5.67;;;;;17.03;74.55;101381.69;6270099;22;45026;-84
2023/11/24 00:48:01;;;;;;;;;2.00;1.00;;;;;17.04;74.37;101389.75;6268304;22;44853;-84
2023/11/24 00:50:26;;;;;;;;;9.00;6.00;;;;;17.02;74.57;101383.47;6242957;22;47177;-84
2023/11/24 00:52:51;;;;;;;;;8.33;6.00;;;;;16.97;75.01;101391.56;6268454;22;44865;-84
2023/11/24 00:55:17;;;;;;;;;6.00;5.67;;;;;16.96;74.88;101399.63;6268409;22;45158;-82
2023/11/24 00:57:42;;;;;;;;;9.00;8.00;;;;;16.97;74.70;101386.19;6267540;22;44764;-82
2023/11/24 01:00:08;;;;;;;;;9.33;9.33;;;;;17.00;75.06;101383.47;6268213;22;47551;-83
2023/11/24 01:02:37;;;;;;;;;4.00;3.00;;;;;17.08;75.11;101377.19;6243433;22;44872;-83
2023/11/24 01:05:03;;;;;;;;;4.67;3.00;;;;;17.23;75.32;101373.56;6268286;22;44851;-82
2023/11/24 01:07:29;;;;;;;;;5.00;5.00;;;;;17.05;75.13;101388.88;6242996;22;44815;-83
2023/11/24 01:09:55;;;;;;;;;4.33;4.33;;;;;16.98;75.16;101398.72;6242501;22;47216;-82
2023/11/24 01:12:21;;;;;;;;;5.67;5.67;;;;;16.88;75.75;101386.19;6269747;22;44851;-83
2023/11/24 01:14:46;;;;;;;;;5.00;4.00;;;;;16.93;75.28;101389.78;6269760;22;44752;-83
2023/11/24 01:17:13;;;;;;;;;5.00;5.00;;;;;16.18;79.42;101393.34;6242884;22;45418;-84
2023/11/24 01:19:38;;;;;;;;;9.00;6.33;;;;;15.09;83.29;101389.31;6266810;22;45042;-83
2023/11/24 01:22:04;;;;;;;;;8.00;8.00;;;;;14.87;85.76;101394.56;6269470;22;44817;-83
2023/11/24 01:24:31;;;;;;;;;6.00;4.33;;;;;14.83;86.31;101376.69;6242840;22;44797;-83
2023/11/24 01:26:56;;;;;;;;;9.00;8.00;;;;;14.72;87.62;101370.34;6242379;22;44832;-83
2023/11/24 01:29:22;;;;;;;;;5.00;5.00;;;;;14.67;88.79;101364.97;6266511;22;53762;-83
2023/11/24 01:31:47;;;;;;;;;9.67;8.67;;;;;14.75;89.48;101378.41;6242403;22;50938;-83
2023/11/24 01:34:14;;;;;;;;;8.33;6.33;;;;;14.69;89.58;101381.03;6269061;22;55161;-83
2023/11/24 01:36:40;;;;;;;;;8.33;8.33;;;;;14.78;89.70;101373.97;6266812;22;45019;-83
2023/11/24 01:39:14;;;;;;;;;7.33;6.67;;;;;15.02;89.75;101366.06;6242450;22;47618;-83
2023/11/24 01:41:40;;;;;;;;;5.67;5.67;;;;;14.83;90.10;101363.28;6268090;22;44941;-83
2023/11/24 01:44:08;;;;;;;;;5.33;5.33;;;;;14.87;90.16;101369.56;6270087;22;44819;-83
2023/11/24 01:46:33;;;;;;;;;10.67;6.00;;;;;14.90;90.04;101373.13;6242349;22;44873;-83
2023/11/24 01:48:59;;;;;;;;;9.67;8.00;;;;;14.84;90.35;101365.06;6267796;22;47040;-83
2023/11/24 01:51:25;;;;;;;;;8.00;8.00;;;;;14.83;90.95;101351.69;6242747;22;44738;-82
2023/11/24 01:57:13;;;;;;;;;9.00;9.00;;;;;14.93;90.46;101346.38;6269506;22;44764;-83
2023/11/24 01:59:39;;;;;;;;;8.00;7.33;;;;;14.89;90.96;101357.97;6269149;22;45114;-83
2023/11/24 02:02:04;;;;;;;;;9.00;8.33;;;;;14.86;91.30;101360.59;6236915;22;45246;-83
2023/11/24 02:04:30;;;;;;;;;9.00;9.00;;;;;14.79;91.65;101359.69;6260823;22;44672;-83
2023/11/24 02:06:57;;;;;;;;;11.00;9.67;;;;;14.95;91.87;101365.16;6264844;22;44793;-83
2023/11/24 02:09:23;;;;;;;;;8.33;6.00;;;;;14.86;91.71;101367.75;6261763;22;47248;-84
2023/11/24 02:11:48;;;;;;;;;8.33;8.33;;;;;14.85;91.66;101358.84;6236426;22;45100;-83
2023/11/24 02:14:14;;;;;;;;;10.67;8.67;;;;;14.86;92.20;101360.59;6237781;22;44790;-84
2023/11/24 02:16:39;;;;;;;;;9.00;9.00;;;;;14.88;92.33;101363.31;6238117;22;45055;-84
2023/11/24 02:19:04;;;;;;;;;11.00;9.67;;;;;14.88;92.30;101358.84;6264643;22;45271;-84
2023/11/24 02:21:30;;;;;;;;;12.00;10.00;;;;;14.90;92.38;101357.06;6264936;22;44799;-84
2023/11/24 02:23:55;;;;;;;;;10.00;10.00;;;;;14.82;93.03;101357.91;6263193;22;45500;-84
2023/11/24 02:26:21;;;;;;;;;9.67;9.67;;;;;14.87;92.75;101345.47;6262135;22;44877;-84
2023/11/24 02:28:46;;;;;;;;;11.00;10.33;;;;;14.92;92.69;101333.88;6237230;22;47098;-84
2023/11/24 02:31:11;;;;;;;;;10.00;9.00;;;;;14.95;92.60;101322.28;6236997;22;44896;-83
2023/11/24 02:33:40;;;;;;;;;11.33;9.00;;;;;14.95;93.18;101323.19;6264460;22;44858;-83
2023/11/24 02:36:17;;;;;;;;;10.67;10.00;;;;;15.05;93.05;101317.84;6263983;22;44816;-83
2023/11/24 02:38:49;;;;;;;;;11.67;10.33;;;;;15.07;93.17;101313.41;6264456;22;44908;-84
2023/11/24 02:41:17;;;;;;;;;12.33;11.67;;;;;14.99;93.38;101300.00;6265038;22;44679;-85
2023/11/24 02:43:43;;;;;;;;;8.67;8.67;;;;;15.00;93.35;101301.78;6264974;22;44766;-84
2023/11/24 02:46:13;;;;;;;;;11.67;7.67;;;;;15.17;93.18;101301.88;6238592;22;44764;-84
2023/11/24 02:48:41;;;;;;;;;10.00;9.00;;;;;14.98;93.47;101292.84;6236829;22;47095;-84
2023/11/24 02:51:07;;;;;;;;;11.00;7.00;;;;;14.92;94.06;101271.38;6263537;22;44742;-84
2023/11/24 02:53:35;;;;;;;;;12.00;9.00;;;;;15.00;93.68;101267.84;6265340;22;44795;-83
2023/11/24 02:56:01;;;;;;;;;9.00;9.00;;;;;15.06;93.93;101269.66;6264287;22;44773;-83
2023/11/24 02:58:26;;;;;;;;;10.33;8.67;;;;;14.95;93.81;101256.22;6264822;22;45929;-84
2023/11/24 03:00:53;;;;;;;;;9.00;9.00;;;;;15.04;93.93;101267.88;6236729;22;45204;-83
2023/11/24 03:03:18;;;;;;;;;6.67;6.33;;;;;14.97;93.90;101270.50;6238190;22;44924;-84
2023/11/24 03:05:44;;;;;;;;;10.67;6.33;;;;;14.97;93.75;101262.47;6238556;22;44853;-84
2023/11/24 03:08:09;;;;;;;;;6.00;6.00;;;;;14.99;94.01;101260.69;6262833;22;47084;-83
2023/11/24 03:10:34;;;;;;;;;13.67;10.00;;;;;15.01;94.14;101250.00;6237889;22;44988;-83
2023/11/24 03:13:00;;;;;;;;;6.00;6.00;;;;;15.03;94.02;101258.03;6265773;22;44858;-84
2023/11/24 03:15:25;;;;;;;;;9.33;8.67;;;;;14.99;94.28;101252.66;6238292;22;44730;-83
2023/11/24 03:21:13;;;;;;;;;9.33;8.33;;;;;15.13;93.96;101249.16;6265291;22;44870;-84
2023/11/24 03:23:38;;;;;;;;;9.67;6.67;;;;;15.16;93.72;101241.13;6238104;22;44893;-84
2023/11/24 03:26:03;;;;;;;;;5.67;5.33;;;;;15.12;93.81;101239.31;6237526;22;44968;-84
2023/11/24 03:28:30;;;;;;;;;8.00;8.00;;;;;15.12;94.11;101242.00;6237016;22;47095;-84
2023/11/24 03:30:55;;;;;;;;;4.33;3.67;;;;;15.10;94.13;101238.41;6237001;22;44796;-84
2023/11/24 03:33:29;;;;;;;;;6.00;6.00;;;;;15.13;94.11;101247.38;6265915;22;44751;-84
2023/11/24 03:35:54;;;;;;;;;5.00;5.00;;;;;15.09;94.07;101240.22;6237791;22;44949;-84
2023/11/24 03:38:20;;;;;;;;;6.00;6.00;;;;;15.12;94.31;101234.84;6263845;22;47049;-84
2023/11/24 03:40:49;;;;;;;;;8.00;8.00;;;;;15.12;94.41;101226.81;6237535;22;44792;-84
2023/11/24 03:43:15;;;;;;;;;7.67;6.00;;;;;15.11;94.51;101224.16;6263494;22;44791;-83
2023/11/24 03:45:40;;;;;;;;;9.00;6.00;;;;;15.10;94.64;101219.66;6211353;22;45104;-84
2023/11/24 03:48:06;;;;;;;;;5.00;4.67;;;;;15.12;95.00;101223.25;6264376;22;45363;-84
2023/11/24 03:50:31;;;;;;;;;8.33;8.00;;;;;15.15;95.02;101224.16;6264686;22;44839;-84
2023/11/24 03:52:56;;;;;;;;;5.33;5.33;;;;;15.16;94.81;101222.34;6264560;22;45707;-84
2023/11/24 03:55:22;;;;;;;;;8.33;6.33;;;;;15.09;95.44;101197.34;6238587;22;45105;-84
2023/11/24 03:57:47;;;;;;;;;7.33;6.00;;;;;15.13;96.02;101208.97;6264488;22;44920;-84
2023/11/24 04:00:13;;;;;;;;;10.00;10.00;;;;;15.16;95.75;101206.28;6265404;22;44830;-83
2023/11/24 04:02:39;;;;;;;;;7.00;6.67;;;;;15.06;95.64;101191.97;6237625;22;44937;-84
2023/11/24 04:05:05;;;;;;;;;5.00;5.00;;;;;15.11;96.38;101194.69;6265387;22;44795;-84
2023/11/24 04:07:31;;;;;;;;;9.00;9.00;;;;;14.99;96.64;101180.34;6237424;22;47001;-84
2023/11/24 04:09:56;;;;;;;;;8.00;7.33;;;;;15.05;96.32;101194.63;6238331;22;45264;-84
2023/11/24 04:12:22;;;;;;;;;9.00;9.00;;;;;14.99;96.67;101196.41;6238282;22;44837;-84
2023/11/24 04:14:47;;;;;;;;;10.00;7.33;;;;;14.97;96.84;101198.19;6239726;22;45311;-83
2023/11/24 04:17:13;;;;;;;;;9.67;9.33;;;;;15.04;96.85;101204.47;6237866;22;46872;-83
2023/11/24 04:19:39;;;;;;;;;9.67;6.00;;;;;15.03;96.84;101188.38;6237579;22;45096;-83
2023/11/24 04:22:04;;;;;;;;;8.67;5.67;;;;;15.08;96.68;101208.06;6264720;22;44898;-83
2023/11/24 04:24:30;;;;;;;;;4.00;4.00;;;;;15.00;97.34;101208.03;6211792;22;44915;-84
2023/11/24 04:26:55;;;;;;;;;9.00;8.67;;;;;15.00;97.60;101208.91;6263306;22;45287;-84
2023/11/24 04:29:21;;;;;;;;;6.00;6.00;;;;;15.02;97.19;101214.28;6264595;22;44764;-84
2023/11/24 04:31:47;;;;;;;;;7.33;7.33;;;;;15.03;97.27;101208.03;6237770;22;44815;-84
2023/11/24 04:34:12;;;;;;;;;5.00;5.00;;;;;15.07;97.04;101199.13;6264858;22;44840;-84
2023/11/24 04:36:38;;;;;;;;;9.67;7.33;;;;;15.06;96.93;101191.06;6237339;22;47164;-84
2023/11/24 04:39:04;;;;;;;;;5.00;5.00;;;;;15.06;97.01;101191.06;6237357;22;45035;-84
2023/11/24 04:41:29;;;;;;;;;6.00;5.00;;;;;15.12;97.17;101181.25;6237975;22;44838;-84
2023/11/24 04:43:55;;;;;;;;;6.67;4.67;;;;;15.08;97.36;101178.59;6237761;22;44784;-84
2023/11/24 04:46:20;;;;;;;;;6.33;6.33;;;;;15.11;96.68;101181.28;6264007;22;45457;-84
2023/11/24 04:48:46;;;;;;;;;8.67;5.00;;;;;15.13;97.10;101179.50;6264250;22;44747;-83
2023/11/24 04:51:11;;;;;;;;;6.67;5.33;;;;;15.10;96.98;101177.69;6237571;22;45173;-83
2023/11/24 04:53:37;;;;;;;;;7.67;7.67;;;;;15.13;96.98;101175.03;6237663;22;44847;-83
2023/11/24 04:56:02;;;;;;;;;5.67;5.67;;;;;15.19;97.22;101182.19;6264612;22;45279;-84
2023/11/24 04:58:28;;;;;;;;;9.00;7.00;;;;;15.20;96.94;101178.59;6262783;22;44888;-84
2023/11/24 05:00:53;;;;;;;;;9.67;6.00;;;;;15.08;97.53;101151.78;6238225;22;44960;-84
2023/11/24 05:03:18;;;;;;;;;9.33;8.33;;;;;15.15;97.36;101158.97;6237391;22;44693;-84
2023/11/24 05:05:44;;;;;;;;;9.67;8.00;;;;;15.14;97.19;101141.09;6237483;22;51524;-83
2023/11/24 05:08:09;;;;;;;;;9.00;9.00;;;;;15.20;97.45;101159.84;6264319;22;44975;-84
2023/11/24 05:10:34;;;;;;;;;6.67;5.00;;;;;15.16;97.08;101156.28;6236930;22;45048;-84
2023/11/24 05:13:00;;;;;;;;;10.00;8.00;;;;;15.11;97.28;101144.66;6264000;22;44759;-84
2023/11/24 05:15:25;;;;;;;;;6.00;6.00;;;;;15.12;97.20;101148.22;6236594;22;47077;-84
2023/11/24 05:17:51;;;;;;;;;9.00;8.00;;;;;15.08;97.70;101141.09;6236807;22;45935;-84
2023/11/24 05:20:18;;;;;;;;;10.00;9.33;;;;;15.12;97.52;101138.41;6262781;22;44829;-84
2023/11/24 05:22:46;;;;;;;;;9.00;8.00;;;;;15.06;97.60;101137.50;6236670;22;44826;-83
2023/11/24 05:25:12;;;;;;;;;8.00;8.00;;;;;15.06;97.59;101137.50;6264547;22;45329;-83
2023/11/24 05:27:37;;;;;;;;;9.33;9.33;;;;;15.04;97.93;101144.66;6263999;22;44666;-83
2023/11/24 05:30:08;;;;;;;;;7.67;7.67;;;;;14.99;98.44;101136.59;6263092;22;44740;-84
2023/11/24 05:32:34;;;;;;;;;10.00;10.00;;;;;14.90;97.91;101126.75;6263183;22;44907;-83
2023/11/24 05:35:00;;;;;;;;;10.33;9.00;;;;;14.93;98.20;101140.16;6265230;22;45043;-84
2023/11/24 05:37:26;;;;;;;;;8.67;8.33;;;;;14.90;98.30;101134.78;6236951;22;44856;-84
2023/11/24 05:39:52;;;;;;;;;9.33;9.33;;;;;14.90;98.26;101133.91;6238360;22;44780;-85
2023/11/24 05:42:17;;;;;;;;;9.33;5.67;;;;;14.97;98.34;101133.91;6263969;22;44928;-84
2023/11/24 05:44:43;;;;;;;;;7.33;7.33;;;;;15.02;98.05;101125.00;6240755;22;47399;-84
2023/11/24 05:47:09;;;;;;;;;9.00;8.00;;;;;15.12;98.02;101121.44;6263541;22;44669;-84
2023/11/24 05:49:35;;;;;;;;;8.00;8.00;;;;;15.02;97.93;101128.56;6237704;22;45431;-84
2023/11/24 05:52:00;;;;;;;;;9.67;9.67;;;;;15.01;97.62;101118.75;6237294;22;44811;-84
2023/11/24 05:54:26;;;;;;;;;8.67;8.67;;;;;15.02;97.88;101130.34;6262626;22;46903;-84
2023/11/24 05:56:51;;;;;;;;;7.67;7.33;;;;;14.95;97.72;101114.28;6237972;22;44887;-84
2023/11/24 05:59:18;;;;;;;;;9.00;6.00;;;;;15.08;97.97;101112.50;6237448;22;45318;-84
2023/11/24 06:01:44;;;;;;;;;6.33;6.33;;;;;15.02;97.29;101104.44;6264841;22;44874;-84
2023/11/24 06:04:09;;;;;;;;;5.00;5.00;;;;;14.94;97.38;101101.75;6236570;22;47360;-84
2023/11/24 06:06:35;;;;;;;;;6.67;6.67;;;;;14.93;97.80;101091.94;6238160;22;44733;-84
2023/11/24 06:09:03;;;;;;;;;8.00;8.00;;;;;15.09;97.65;101105.34;6236698;22;44756;-84
2023/11/24 06:11:28;;;;;;;;;5.33;5.00;;;;;14.93;97.90;101102.66;6265721;22;44704;-84
2023/11/24 06:13:54;;;;;;;;;6.67;6.67;;;;;14.96;97.55;101110.69;6264817;22;45123;-84
2023/11/24 06:16:20;;;;;;;;;6.67;5.00;;;;;15.01;97.57;101113.41;6239830;22;44741;-83
2023/11/24 06:18:46;;;;;;;;;7.00;6.00;;;;;15.02;97.48;101128.56;6265488;22;44920;-83
2023/11/24 06:21:12;;;;;;;;;2.33;2.33;;;;;15.03;97.32;101116.06;6264989;22;45288;-84
2023/11/24 06:23:40;;;;;;;;;5.00;4.00;;;;;15.16;97.42;101126.78;6239650;22;47127;-84
2023/11/24 06:26:09;;;;;;;;;10.33;10.33;;;;;15.14;97.71;101122.34;6237545;22;45331;-82
2023/11/24 06:28:37;;;;;;;;;6.67;5.33;;;;;15.14;98.33;101133.06;6248871;22;45440;-82
2023/11/24 06:31:03;;;;;;;;;8.67;6.00;;;;;14.96;98.55;101126.75;6222588;22;44925;-82
2023/11/24 06:33:28;;;;;;;;;9.00;9.00;;;;;14.98;98.84;101146.41;6247255;22;47065;-82
2023/11/24 06:35:55;;;;;;;;;9.00;6.67;;;;;15.00;98.55;101133.91;6248810;22;47587;-82
2023/11/24 06:38:20;;;;;;;;;9.00;7.33;;;;;14.90;98.44;101123.19;6263725;22;44879;-83
2023/11/24 06:40:46;;;;;;;;;8.67;8.67;;;;;14.85;99.53;101117.81;6266882;22;44827;-83
2023/11/24 06:43:11;;;;;;;;;6.00;6.00;;;;;14.87;98.93;101131.22;6239600;22;46959;-83
2023/11/24 06:45:36;;;;;;;;;5.33;5.33;;;;;14.93;98.31;101126.78;6239416;22;45314;-83
2023/11/24 06:48:02;;;;;;;;;6.33;5.33;;;;;14.87;97.93;101113.38;6264675;22;45198;-83
2023/11/24 06:50:27;;;;;;;;;6.33;5.67;;;;;14.91;96.83;101122.31;6265481;22;44802;-83
2023/11/24 06:52:53;;;;;;;;;7.00;6.00;;;;;14.85;97.07;101117.81;6265996;22;46320;-84
2023/11/24 06:55:19;;;;;;;;;5.67;5.00;;;;;14.88;95.90;101123.16;6239666;22;45346;-83
2023/11/24 06:57:44;;;;;;;;;7.67;7.67;;;;;14.83;96.04;101108.91;6267980;22;44734;-83
2023/11/24 07:00:17;;;;;;;;;10.00;9.00;;;;;14.95;95.80;101118.75;6264363;22;44749;-83
2023/11/24 07:02:49;;;;;;;;;4.33;3.67;;;;;14.83;95.73;101114.25;6264076;22;45372;-83
2023/11/24 07:08:36;;;;;;;;;5.00;5.00;;;;;14.81;95.13;101113.34;6268815;22;44867;-84
2023/11/24 07:11:04;;;;;;;;;3.33;3.33;;;;;14.82;93.81;101111.56;6240632;22;44816;-85
2023/11/24 07:13:30;;;;;;;;;4.67;4.00;;;;;14.84;93.09;101118.69;6268630;22;45152;-84
2023/11/24 07:15:55;;;;;;;;;2.67;2.67;;;;;14.79;92.58;101120.50;6240697;22;44833;-84
2023/11/24 07:18:23;;;;;;;;;4.00;4.00;;;;;14.81;91.45;101121.38;6242282;22;44806;-84
2023/11/24 07:20:48;;;;;;;;;3.67;3.00;;;;;14.79;90.33;101117.81;6269147;22;44692;-84
2023/11/24 07:23:16;;;;;;;;;2.00;2.00;;;;;14.93;88.92;101132.13;6267103;22;45399;-84
2023/11/24 07:25:43;;;;;;;;;3.00;3.00;;;;;14.77;88.89;101130.31;6267828;22;45058;-85
2023/11/24 07:28:09;;;;;;;;;5.33;5.00;;;;;15.17;86.39;101125.03;6239713;22;44839;-84
2023/11/24 07:30:37;;;;;;;;;2.75;2.75;;;;;14.85;87.13;101131.22;6241326;22;44773;-83
2023/11/24 07:33:02;;;;;;;;;2.75;2.75;;;;;14.80;85.50;101143.69;6239450;22;45660;-84
2023/11/24 07:35:28;;;;;;;;;3.50;3.50;;;;;14.79;83.49;101145.47;6234419;22;44855;-84
2023/11/24 07:37:53;;;;;;;;;3.00;3.00;;;;;14.79;84.41;101149.94;6236396;22;45048;-84
2023/11/24 07:40:25;;;;;;;;;4.25;2.25;;;;;14.99;84.42;101148.22;6236633;22;44863;-83
2023/11/24 07:42:51;;;;;;;;;3.67;3.67;;;;;14.84;83.31;101149.94;6262126;22;47376;-84
2023/11/24 07:45:16;;;;;;;;;3.67;2.00;;;;;14.85;83.55;101141.03;6261349;22;44844;-83
2023/11/24 07:47:42;;;;;;;;;1.00;1.00;;;;;14.87;83.08;101153.53;6263605;22;44841;-83
2023/11/24 07:50:09;;;;;;;;;5.00;5.00;;;;;14.88;81.57;101149.06;6264668;22;44724;-84
2023/11/24 07:52:34;;;;;;;;;2.67;2.67;;;;;14.88;82.00;101141.03;6234445;22;47170;-84
2023/11/24 07:54:59;;;;;;;;;3.00;3.00;;;;;14.91;81.04;101151.78;6263266;22;44987;-84
2023/11/24 07:57:26;;;;;;;;;4.67;3.67;;;;;14.92;79.31;101151.75;6263787;22;44996;-84
2023/11/24 07:59:55;;;;;;;;;4.00;4.00;;;;;14.96;80.10;101140.16;6236447;22;45087;-84
2023/11/24 08:02:20;;;;;;;;;4.00;3.00;;;;;14.93;78.74;101152.66;6236610;22;46931;-84
2023/11/24 08:04:46;;;;;;;;;3.33;3.33;;;;;14.87;79.66;101144.63;6238743;22;44830;-84
2023/11/24 08:07:11;;;;;;;;;4.00;3.00;;;;;14.89;79.96;101146.41;6236822;22;44765;-84
2023/11/24 08:09:36;;;;;;;;;3.67;3.00;;;;;14.83;79.14;101145.50;6264925;22;45162;-83
2023/11/24 08:12:04;;;;;;;;;3.00;3.00;;;;;14.79;78.21;101139.22;6263079;22;46983;-84
2023/11/24 08:14:31;;;;;;;;;3.67;3.33;;;;;14.85;78.45;101155.31;6236195;22;45034;-83
2023/11/24 08:16:56;;;;;;;;;3.33;2.00;;;;;14.88;78.17;101151.75;6265389;22;45354;-83
2023/11/24 08:19:28;;;;;;;;;4.00;3.00;;;;;15.14;78.93;101163.41;6264175;22;45071;-84
2023/11/24 08:21:53;;;;;;;;;3.00;2.00;;;;;14.82;77.90;101131.19;6240900;22;47418;-85
2023/11/24 08:24:19;;;;;;;;;3.00;1.50;;;;;14.97;74.43;101166.06;6242936;22;44715;-83
2023/11/24 08:32:22;;;;;;;;;4.00;4.00;;;;;15.05;76.06;101138.38;6232598;22;45085;-85
2023/11/24 08:34:55;;;;;;;;;7.00;3.00;;;;;14.95;76.25;101129.47;6208979;22;45068;-85
2023/11/24 08:37:21;;;;;;;;;4.00;3.00;;;;;14.89;75.94;101146.41;6231928;22;44835;-85
2023/11/24 08:39:46;;;;;;;;;4.50;3.00;;;;;14.85;75.74;101141.91;6236122;22;44832;-84
2023/11/24 08:44:47;;;;;;;;;2.75;2.75;;;;;14.65;75.03;101120.44;6218792;22;46220;-84
2023/11/24 08:47:30;;;;;;;;;2.75;2.75;;;;;14.81;74.25;101153.53;6208310;22;44822;-84
2023/11/24 08:50:15;;;;;;;;;2.67;2.67;;;;;14.93;74.34;101142.84;6206490;22;44813;-85
2023/11/24 08:52:52;;;;;;;;;5.33;3.00;;;;;14.79;73.60;101112.44;6230195;22;45361;-84
2023/11/24 08:55:23;;;;;;;;;6.67;5.00;;;;;14.88;74.04;101120.50;6223001;22;45377;-85
2023/11/24 08:57:53;;;;;;;;;2.33;2.00;;;;;14.63;70.53;101113.31;6224158;22;45249;-85
2023/11/24 09:00:19;;;;;;;;;3.67;2.00;;;;;14.60;72.24;101103.44;6223497;22;45374;-85
2023/11/24 09:02:44;;;;;;;;;0.25;0.25;;;;;14.70;70.16;101139.19;6220120;22;46940;-85
2023/11/24 09:05:11;;;;;;;;;3.67;2.00;;;;;14.79;70.28;101142.78;6222662;22;45306;-85
2023/11/24 09:32:58;;;;;;;;;4.75;2.50;;;;;14.84;70.61;101083.88;5297401;22;24081732;-85
2023/11/24 09:38:10;;;;;;;;;2.00;2.00;;;;;14.83;69.11;101099.97;6395802;22;58326;-86
2023/11/24 10:42:25;;;;;;;;;4.67;3.00;;;;;14.70;58.38;101049.03;6310148;22;45386;-84
2023/11/24 11:44:52;;;;;;;;;5.00;4.00;;;;;14.96;57.61;100987.50;6356324;22;44877;-85
2023/11/24 11:48:11;;;;;;;;;4.00;3.00;;;;;15.02;58.71;100991.06;6292930;22;45372;-84
2023/11/24 11:53:54;;;;;;;;;3.00;3.00;;;;;14.89;58.61;100991.06;6195740;23;45604;-85
2023/11/24 11:56:23;;;;;;;;;4.67;4.67;;;;;14.58;59.27;100932.16;6171743;22;44871;-86
2023/11/24 11:59:05;;;;;;;;;5.00;3.50;;;;;14.90;59.31;100982.13;6200764;23;45239;-83
2023/11/24 12:04:15;;;;;;;;;2.33;2.33;;;;;14.86;59.08;100960.72;6384366;22;45306;-86
2023/11/24 12:06:51;;;;;;;;;5.33;4.00;;;;;14.79;59.17;100967.88;6416626;22;44832;-83
2023/11/24 12:22:50;;;;;;;;;;;;;;;;;;;;;
2023/11/24 12:29:01;;;;;;;;;3.00;2.67;;;;;15.01;59.55;100955.38;6343430;22;45890;31
2023/11/24 12:31:44;;;;;;;;;6.00;3.33;;;;;14.90;60.44;100920.53;6318860;22;45775;-83
2023/11/24 12:39:50;;;;;;;;;6.00;3.33;;;;;14.82;59.66;100940.19;6400348;22;46899;-81
2023/11/24 12:42:41;;;;;;;;;2.67;2.67;;;;;14.92;60.24;100937.50;6317557;22;46867;-84
2023/11/24 12:45:10;;;;;;;;;7.50;3.00;;;;;14.76;59.78;100930.38;6313895;22;45492;-81
2023/11/24 12:48:04;;;;;;;;;5.00;3.00;;;;;14.77;60.37;100889.34;6290246;22;45385;-80
2023/11/24 12:50:31;;;;;;;;;4.67;4.67;;;;;14.84;59.72;100923.22;6291340;22;44872;-80
2023/11/24 12:53:00;;;;;;;;;6.67;3.67;;;;;14.72;59.22;100900.03;6369493;22;45458;-80
2023/11/24 12:55:52;;;;;;;;;2.00;2.00;;;;;14.94;60.04;100926.78;6387495;22;44966;-80
2023/11/24 12:58:30;;;;;;;;;3.00;2.67;;;;;14.99;60.24;100912.50;6387102;22;45368;-83
2023/11/24 13:00:59;;;;;;;;;3.67;2.00;;;;;14.78;60.39;100875.03;6385527;22;45322;-83
2023/11/24 13:04:17;;;;;;;;;2.33;2.33;;;;;15.13;60.00;100915.16;6381683;22;46857;-83
2023/11/24 13:06:47;;;;;;;;;3.67;3.00;;;;;14.78;59.48;100896.47;6377649;22;44775;-84
2023/11/24 13:09:33;;;;;;;;;4.00;3.00;;;;;14.46;59.79;100878.59;6383838;22;45426;-83
2023/11/24 13:12:00;;;;;;;;;5.00;3.00;;;;;14.17;61.73;100871.44;6391970;22;44832;-82
2023/11/24 13:14:32;;;;;;;;;5.00;4.00;;;;;14.09;62.44;100880.34;6406885;22;47086;-83
2023/11/24 13:17:03;;;;;;;;;4.00;2.00;;;;;13.82;62.41;100870.47;6411300;22;45455;-83
2023/11/24 13:19:29;;;;;;;;;5.67;3.67;;;;;14.06;63.23;100920.44;6377655;22;45352;-82
2023/11/24 13:21:56;;;;;;;;;3.00;1.00;;;;;13.93;63.84;100915.06;6353962;22;45267;-84
2023/11/24 13:27:25;;;;;;;;;1.67;1.67;;;;;13.53;68.08;100889.94;6279278;22;45402;-83
2023/11/24 13:29:51;;;;;;;;;4.00;3.00;;;;;13.21;73.47;100898.69;6254655;22;45340;-84
2023/11/24 13:32:19;;;;;;;;;6.00;3.67;;;;;13.10;74.53;100908.41;6280445;22;45356;-83
2023/11/24 13:35:18;;;;;;;;;4.67;3.33;;;;;13.19;74.45;100924.50;6253021;22;46888;-84
2023/11/24 13:40:30;;;;;;;;;2.00;2.00;;;;;13.15;71.59;100928.91;6313670;22;46550;-84
2023/11/24 13:52:16;;;;;;;;;4.00;2.00;;;;;13.18;72.27;100938.72;6394113;22;46258;-84
2023/11/24 13:54:42;;;;;;;;;2.00;2.00;;;;;12.93;72.37;100943.88;6361552;22;44891;-84
2023/11/24 13:57:08;;;;;;;;;1.33;1.33;;;;;12.89;72.16;100938.53;6382448;22;47282;-82
2023/11/24 13:59:33;;;;;;;;;5.00;3.00;;;;;12.70;73.61;100938.34;6356016;22;44792;-83
2023/11/24 14:01:59;;;;;;;;;2.00;2.00;;;;;12.62;74.19;100942.72;6353591;22;45175;-85
2023/11/24 14:04:25;;;;;;;;;3.00;3.00;;;;;12.63;74.43;100947.19;6353437;22;44726;-84
2023/11/24 14:06:51;;;;;;;;;3.33;3.33;;;;;12.55;73.87;100928.44;6324629;22;46959;-85
2023/11/24 14:09:29;;;;;;;;;2.33;2.00;;;;;12.52;73.60;100931.09;6353929;22;44715;-85
2023/11/24 14:11:55;;;;;;;;;2.00;2.00;;;;;12.60;72.73;100944.47;6326866;22;45089;-84
2023/11/24 14:14:20;;;;;;;;;2.00;2.00;;;;;12.59;72.75;100935.59;6349332;22;44850;-83
2023/11/24 14:16:53;;;;;;;;;2.00;2.00;;;;;12.66;72.56;100933.88;6349870;22;45244;-81
2023/11/24 14:19:21;;;;;;;;;2.00;2.00;;;;;12.75;72.42;100949.09;6342942;22;45331;-81
2023/11/24 14:21:49;;;;;;;;;3.00;2.67;;;;;12.48;72.08;100931.94;6345253;22;45097;-81
2023/11/24 14:24:15;;;;;;;;;3.33;2.00;;;;;12.49;72.36;100946.19;6372556;22;45447;-81
2023/11/24 14:26:44;;;;;;;;;3.00;2.00;;;;;12.50;72.54;100939.94;6341314;22;47582;-81
2023/11/24 14:29:14;;;;;;;;;2.00;2.00;;;;;12.40;72.50;100915.88;6348185;22;44910;-82
2023/11/24 14:31:42;;;;;;;;;3.00;2.00;;;;;12.53;72.35;100951.53;6344485;22;45307;-81
2023/11/24 14:34:10;;;;;;;;;2.33;2.00;;;;;12.61;72.19;100952.50;6344799;22;45313;-82
2023/11/24 14:36:38;;;;;;;;;3.67;3.67;;;;;12.57;72.61;100956.03;6340768;22;47084;-81
2023/11/24 14:47:22;;;;;;;;;7.33;4.00;;;;;12.64;71.46;100964.97;6124506;23;45445;-82
2023/11/24 14:49:48;;;;;;;;;3.67;3.67;;;;;12.20;70.53;100926.34;6164463;23;46023;-81
2023/11/24 14:52:20;;;;;;;;;2.33;2.00;;;;;12.56;71.01;100967.59;6161913;23;45511;-81
2023/11/24 14:54:46;;;;;;;;;4.00;1.00;;;;;12.42;69.65;100969.22;6199032;22;45319;-82
2023/11/24 14:57:12;;;;;;;;;3.00;2.00;;;;;12.24;70.43;100939.69;6216625;22;45544;-83
2023/11/24 14:59:38;;;;;;;;;2.00;1.00;;;;;12.32;70.39;100959.31;6189501;22;46567;-82
2023/11/24 15:02:12;;;;;;;;;4.00;2.67;;;;;12.22;70.51;100931.69;6217622;22;45387;-81
2023/11/24 15:04:39;;;;;;;;;3.00;3.00;;;;;12.41;68.79;100967.44;6192660;22;45430;-81
2023/11/24 15:07:08;;;;;;;;;3.67;3.33;;;;;12.45;69.19;100971.91;6192476;22;45410;-81